M I D A S
Marine Information and Data Acquisition System
Tripno 428 of the Zeeleeuw from 2003-02-11 07:32:15 to 2003-02-11 15:22:51
Back to CruiseResearch ActivitiesStationsMapUnderway DataData graphs

EquipmentUnitsComment
TimeDGPSUTC
LatitudeDGPSDM.mWGS84
LongitudeDGPSDM.mWGS84
TemperatureSBE03/SBE38deg celciusITS90
ConductivitySBE21S/mITS90
SalinitySBE21 Practical Salinity Units
ChlorophylAChelsea fluorimeterg/lCalibrated in Aceton
Missing or incorrect values are displayed as -999
Sea surface data collected by the RV Zeeleeuw from 2003-02-11 07:32:15 to 2003-02-11 15:22:51
Time Latitude Longitude Temperature Conductivity Salinity ChlorophylA
2003-02-11 07:33:19 51°13.631 2°55.988 11.129102 0.448247 2.786723 -0.814958
2003-02-11 07:34:19 51°13.67 2°55.864 11.115962 0.446787 2.77856 -0.848668
2003-02-11 07:35:19 51°13.702 2°55.748 11.128825 0.44637 2.775848 -0.814958
2003-02-11 07:36:19 51°13.715 2°55.735 11.142378 0.446266 2.776123 -0.814958
2003-02-11 07:37:19 51°13.709 2°55.719 11.125414 0.446057 2.775129 -0.848668
2003-02-11 07:38:19 51°13.727 2°55.706 11.125967 0.446266 2.777138 -0.814958
2003-02-11 07:39:18 51°13.782 2°55.666 11.110336 0.446057 2.776336 -0.781249
2003-02-11 07:40:19 51°13.872 2°55.602 11.125229 0.445744 2.776439 -0.848668
2003-02-11 07:41:19 51°13.978 2°55.526 11.132283 0.445536 2.777671 -0.848668
2003-02-11 07:42:19 51°14.092 2°55.439 11.127903 0.445536 2.777768 -0.814958
2003-02-11 07:43:19 51°14.21 2°55.338 11.131407 0.445536 2.778592 -0.848668
2003-02-11 07:44:18 51°14.313 2°55.177 11.13574 0.445223 2.778553 -0.814958
2003-02-11 07:45:18 51°14.431 2°54.993 11.125322 0.445119 2.7782 -0.848668
2003-02-11 07:46:19 51°14.602 2°54.815 11.116607 0.445014 2.780033 -0.814958
2003-02-11 07:47:19 51°14.784 2°54.633 11.120573 0.444701 2.778293 -0.814958
2003-02-11 07:48:18 51°14.965 2°54.449 11.116146 0.444701 2.77878 -0.814958
2003-02-11 07:49:18 51°15.152 2°54.262 11.118775 0.444701 2.779607 -0.848668
2003-02-11 07:50:19 51°15.343 2°54.071 -999 0.444493 2.779387 -0.848668
2003-02-11 07:51:18 51°15.525 2°53.88 -999 1.459291 10.671417 2.218888
2003-02-11 07:52:19 51°15.717 2°53.668 -999 2.888401 29.48768 2.6234
2003-02-11 07:53:17 51°15.902 2°53.461 -999 2.830004 29.169362 2.421144
2003-02-11 07:54:18 51°16.095 2°53.242 -999 2.852733 29.504222 2.353725
2003-02-11 07:55:18 51°16.292 2°53.04 -999 2.878198 29.770333 2.117759
2003-02-11 07:56:17 51°16.49 2°52.848 -999 2.869885 29.71804 1.848084
2003-02-11 07:57:17 51°16.69 2°52.654 -999 2.870622 29.765167 1.746956
2003-02-11 07:58:18 51°16.897 2°52.467 -999 2.866308 29.74746 1.645828
2003-02-11 07:59:19 51°17.129 2°52.346 -999 2.86494 29.742884 1.679537
2003-02-11 08:00:18 51°17.363 2°52.267 -999 2.859574 29.712296 1.612118
2003-02-11 08:01:17 51°17.606 2°52.256 -999 2.867571 29.802362 1.612118
2003-02-11 08:02:23 51°17.875 2°52.289 -999 2.879883 29.924388 1.51099
2003-02-11 08:03:23 51°18.108 2°52.428 -999 2.913558 30.239821 1.612118
2003-02-11 08:04:23 51°18.331 2°52.601 -999 2.941446 30.490624 1.713247
2003-02-11 08:05:23 51°18.528 2°52.835 -999 2.946814 30.531016 1.746956
2003-02-11 08:06:25 51°18.729 2°53.088 -999 2.963863 30.669269 1.746956
2003-02-11 08:07:32 51°18.945 2°53.366 -999 2.962601 30.67592 1.645828
2003-02-11 08:08:29 51°19.128 2°53.61 -999 2.948603 30.553101 1.645828
2003-02-11 08:09:32 51°19.33 2°53.878 -999 2.936079 30.449386 1.679537
2003-02-11 08:10:32 51°19.525 2°54.131 -999 2.926397 30.355475 1.713247
2003-02-11 08:11:30 51°19.713 2°54.375 -999 2.912611 30.235399 1.645828
2003-02-11 08:12:32 51°19.914 2°54.634 -999 2.896089 30.078972 1.645828
2003-02-11 08:13:29 51°20.1 2°54.872 -999 2.886197 30.003161 1.713247
2003-02-11 08:14:31 51°20.302 2°55.134 -999 2.867992 29.823082 1.645828
2003-02-11 08:15:32 51°20.494 2°55.403 -999 2.853997 29.689547 1.612118
2003-02-11 08:16:30 51°20.676 2°55.659 -999 2.83853 29.538194 1.5447
2003-02-11 08:17:30 51°20.865 2°55.921 -999 2.83653 29.522357 1.443571
2003-02-11 08:18:31 51°21.056 2°56.19 -999 2.835689 29.51191 1.477281
2003-02-11 08:19:28 51°21.236 2°56.442 -999 2.827061 29.421584 1.51099
2003-02-11 08:20:31 51°21.433 2°56.72 -999 2.837898 29.545158 1.376153
2003-02-11 08:21:29 51°21.616 2°56.977 -999 2.833584 29.502744 1.409862
2003-02-11 08:22:32 51°21.813 2°57.255 -999 2.830954 29.477281 1.173896
2003-02-11 08:23:31 51°21.99 2°57.53 -999 2.823273 29.391488 1.207606
2003-02-11 08:24:30 51°22.163 2°57.815 -999 2.813803 29.315775 1.477281
2003-02-11 08:25:30 51°22.339 2°58.108 -999 2.790551 29.082411 1.477281
2003-02-11 08:26:31 51°22.517 2°58.404 -999 2.7774 28.94619 1.5447
2003-02-11 08:27:31 51°22.687 2°58.704 -999 2.762566 28.781345 1.51099
2003-02-11 08:28:37 51°22.869 2°59.04 -999 2.762566 28.78675 1.51099
2003-02-11 08:29:35 51°23.028 2°59.337 -999 2.756359 28.717064 1.409862
2003-02-11 08:30:36 51°23.192 2°59.642 -999 2.763723 28.800805 1.51099
2003-02-11 08:31:36 51°23.344 2°59.856 -999 2.766564 28.830316 1.308734
2003-02-11 08:32:37 51°23.355 3°0.044 7.929004 2.761303 28.707571 1.241315
2003-02-11 08:33:36 51°23.311 3°0.072 8.112232 2.765196 28.82235 1.275024
2003-02-11 08:34:36 51°23.284 3°0.028 9.102008 2.762145 28.795053 1.342443
2003-02-11 08:35:36 51°23.264 3°0.003 7.591892 2.763302 28.79752 1.308734
2003-02-11 08:36:36 51°23.252 2°59.989 7.488505 2.76488 28.804814 1.308734
2003-02-11 08:37:36 51°23.249 2°59.967 8.198129 2.75962 28.765292 1.241315
2003-02-11 08:38:36 51°23.253 2°59.941 8.015629 2.76446 28.818536 1.275024
2003-02-11 08:39:36 51°23.261 2°59.912 7.65753 2.76467 28.810127 1.376153
2003-02-11 08:40:35 51°23.266 2°59.892 7.458022 2.766774 28.832732 1.342443
2003-02-11 08:41:36 51°23.269 2°59.882 7.051632 2.765827 28.82573 1.342443
2003-02-11 08:42:37 51°23.27 2°59.88 7.172782 2.76204 28.783802 1.342443
2003-02-11 08:43:36 51°23.271 2°59.886 6.9719 2.763618 28.80037 1.342443
2003-02-11 08:44:36 51°23.273 2°59.899 6.968213 2.763513 28.803799 1.342443
2003-02-11 08:45:36 51°23.275 2°59.919 6.967132 2.766038 28.829692 1.409862
2003-02-11 08:46:39 51°23.281 2°59.948 7.366145 2.76446 28.813896 1.376153
2003-02-11 08:47:40 51°23.291 2°59.984 7.284458 2.763828 28.813608 1.443571
2003-02-11 08:48:42 51°23.303 3°0.026 7.477972 2.76709 28.83326 1.241315
2003-02-11 08:49:42 51°23.31 3°0.06 7.541632 2.767405 28.833016 1.342443
2003-02-11 08:50:42 51°23.315 3°0.081 7.546553 2.767616 28.840072 1.308734
2003-02-11 08:51:47 51°23.318 3°0.088 7.227542 2.766774 28.828091 1.342443
2003-02-11 08:52:45 51°23.318 3°0.089 7.544507 2.768457 28.847411 1.342443
2003-02-11 08:53:47 51°23.315 3°0.089 7.69448 2.765406 28.813942 1.376153
2003-02-11 08:54:47 51°23.309 3°0.093 8.04609 2.76225 28.788534 1.409862
2003-02-11 08:55:45 51°23.302 3°0.097 7.81345 2.763934 28.804765 1.376153
2003-02-11 08:56:47 51°23.294 3°0.091 8.180862 2.766248 28.826694 1.241315
2003-02-11 08:57:44 51°23.291 3°0.072 7.550499 2.765617 28.811719 1.207606
2003-02-11 08:58:46 51°23.286 3°0.054 8.021626 2.763302 28.785163 1.308734
2003-02-11 08:59:47 51°23.28 3°0.039 8.654116 2.763618 28.788784 1.376153
2003-02-11 09:00:47 51°23.273 3°0.027 7.259799 2.766458 28.825242 1.342443
2003-02-11 09:01:46 51°23.268 3°0.015 7.5916 2.758778 28.734807 1.376153
2003-02-11 09:02:45 51°23.261 3°0 7.313214 2.768247 28.836488 1.342443
2003-02-11 09:03:47 51°23.255 2°59.982 8.111169 2.799141 25.841034 1.342443
2003-02-11 09:04:46 51°23.249 2°59.966 7.310085 2.768773 28.842524 1.409862
2003-02-11 09:05:47 51°23.242 2°59.955 7.555711 2.768983 28.850353 1.308734
2003-02-11 09:06:47 51°23.236 2°59.941 7.563212 2.770141 28.854349 1.51099
2003-02-11 09:07:47 51°23.231 2°59.923 7.988009 2.770456 28.854876 1.409862
2003-02-11 09:08:46 51°23.232 2°59.895 7.632188 2.769404 28.852088 1.275024
2003-02-11 09:09:47 51°23.24 2°59.86 7.265573 2.769194 28.853542 1.207606
2003-02-11 09:10:46 51°23.256 2°59.823 7.013473 2.76709 28.834034 1.241315
2003-02-11 09:11:47 51°23.277 2°59.786 7.261218 2.765827 28.824957 1.241315
2003-02-11 09:12:46 51°23.302 2°59.749 6.694842 2.766143 28.822393 1.308734
2003-02-11 09:13:45 51°23.333 2°59.715 7.379774 2.765722 28.820656 1.207606
2003-02-11 09:14:46 51°23.374 2°59.688 6.900141 2.76709 28.834034 1.376153
2003-02-11 09:15:45 51°23.422 2°59.678 7.462705 2.768983 28.851901 1.409862
2003-02-11 09:16:46 51°23.474 2°59.692 7.584979 2.769509 28.857938 1.342443
2003-02-11 09:17:46 51°23.522 2°59.724 6.946334 2.770667 28.868898 1.376153
2003-02-11 09:18:45 51°23.562 2°59.768 7.18361 2.771298 28.875369 1.308734
2003-02-11 09:19:47 51°23.597 2°59.841 7.794818 2.771613 28.876668 1.241315
2003-02-11 09:20:51 51°23.536 2°59.958 7.89965 2.773086 28.888925 1.376153
2003-02-11 09:21:51 51°23.435 3°0.076 7.705026 2.769089 28.853108 1.376153
2003-02-11 09:22:51 51°23.332 3°0.143 7.848274 2.772981 28.886943 1.5447
2003-02-11 09:23:51 51°23.288 3°0.098 7.097715 2.767405 28.833789 1.51099
2003-02-11 09:24:49 51°23.278 3°0.076 7.540122 2.765827 28.820317 1.308734
2003-02-11 09:25:52 51°23.274 3°0.063 7.44685 2.765512 28.817468 1.409862
2003-02-11 09:26:51 51°23.268 3°0.049 7.237089 2.767721 28.830452 1.443571
2003-02-11 09:27:49 51°23.262 3°0.037 7.07588 2.769194 28.841166 1.409862
2003-02-11 09:28:51 51°23.254 3°0.023 6.995639 2.768457 28.835809 1.443571
2003-02-11 09:29:52 51°23.248 3°0.007 7.880365 2.768878 28.835999 1.443571
2003-02-11 09:30:51 51°23.241 2°59.991 7.763218 2.769825 28.845314 1.477281
2003-02-11 09:31:51 51°23.235 2°59.972 7.548404 2.771298 28.858343 1.409862
2003-02-11 09:32:52 51°23.225 2°59.945 7.329543 2.77235 28.868864 1.409862
2003-02-11 09:33:52 51°23.234 2°59.822 7.322943 2.773297 28.881273 1.342443
2003-02-11 09:34:52 51°23.342 2°59.797 7.95147 2.776032 28.908006 1.173896
2003-02-11 09:35:51 51°23.372 2°59.941 7.371226 2.77519 28.903773 1.207606
2003-02-11 09:36:52 51°23.317 3°0.135 7.484604 2.776032 28.912655 1.443571
2003-02-11 09:37:51 51°23.233 3°0.453 7.436798 2.77235 28.869638 1.443571
2003-02-11 09:38:52 51°23.149 3°0.796 7.432552 2.768983 28.841071 1.612118
2003-02-11 09:39:52 51°23.07 3°1.136 7.654466 2.774033 28.905991 1.612118
2003-02-11 09:40:49 51°23.002 3°1.466 7.670416 2.760356 28.756766 1.645828
2003-02-11 09:41:52 51°22.926 3°1.828 7.352709 2.757095 28.723202 1.645828
2003-02-11 09:42:51 51°22.855 3°2.163 7.231459 2.750888 28.677386 1.578409
2003-02-11 09:43:52 51°22.78 3°2.516 7.885889 2.754781 28.712825 1.5447
2003-02-11 09:44:52 51°22.706 3°2.859 7.581327 2.761093 28.765216 1.612118
2003-02-11 09:45:51 51°22.632 3°3.195 6.783253 2.761934 28.767157 1.5447
2003-02-11 09:46:51 51°22.56 3°3.54 7.745883 2.759725 28.740273 1.409862
2003-02-11 09:47:51 51°22.499 3°3.889 7.905367 2.758042 28.718657 1.308734
2003-02-11 09:48:52 51°22.432 3°4.244 7.763995 2.756358 28.696277 1.207606
2003-02-11 09:49:51 51°22.373 3°4.587 7.794333 2.755938 28.682225 1.241315
2003-02-11 09:50:51 51°22.313 3°4.936 7.459388 2.74952 28.624025 1.376153
2003-02-11 09:51:52 51°22.249 3°5.287 7.795643 2.750152 28.63203 1.51099
2003-02-11 09:52:51 51°22.193 3°5.629 8.040676 2.761934 28.742493 1.746956
2003-02-11 09:53:52 51°22.161 3°5.992 7.652764 2.746996 28.616568 2.218888
2003-02-11 09:54:52 51°22.129 3°6.349 7.274723 2.739737 28.521833 2.421144
2003-02-11 09:55:51 51°22.1 3°6.696 7.566962 2.741314 28.513917 2.488563
2003-02-11 09:56:53 51°22.113 3°7.064 7.920916 2.739526 28.490382 2.454853
2003-02-11 09:57:54 51°22.164 3°7.418 7.643231 2.73658 28.465045 2.488563
2003-02-11 09:58:53 51°22.229 3°7.756 7.916605 2.737948 28.477655 2.488563
2003-02-11 09:59:54 51°22.297 3°8.106 8.186843 2.73921 28.496694 2.353725
2003-02-11 10:00:54 51°22.377 3°8.442 7.432357 2.734476 28.444763 2.454853
2003-02-11 10:01:54 51°22.48 3°8.766 7.780695 2.728585 28.378825 2.555982
2003-02-11 10:02:54 51°22.595 3°9.013 7.544507 2.723641 28.329056 2.488563
2003-02-11 10:03:54 51°22.712 3°9.192 7.582398 2.72564 28.352702 2.488563
2003-02-11 10:04:54 51°22.785 3°9.37 7.263714 2.73132 28.417001 2.353725
2003-02-11 10:05:54 51°22.767 3°9.462 7.384023 2.729848 28.400132 2.08405
2003-02-11 10:06:53 51°22.738 3°9.487 6.783056 2.731005 28.417196 2.151469
2003-02-11 10:07:53 51°22.712 3°9.469 6.782415 2.72827 28.38206 2.185178
2003-02-11 10:08:53 51°22.704 3°9.446 7.145825 2.727954 28.377684 1.915503
2003-02-11 10:09:53 51°22.693 3°9.418 7.546066 2.726587 28.358982 2.286306
2003-02-11 10:10:52 51°22.683 3°9.392 7.627906 2.727007 28.366081 2.218888
2003-02-11 10:11:54 51°22.678 3°9.369 7.385391 2.725219 28.346364 2.252597
2003-02-11 10:12:54 51°22.677 3°9.349 7.429233 2.724903 28.34275 2.387435
2003-02-11 10:13:54 51°22.677 3°9.33 7.34748 2.724798 28.341545 2.320016
2003-02-11 10:14:53 51°22.68 3°9.312 7.270564 2.725535 28.349977 2.353725
2003-02-11 10:15:54 51°22.685 3°9.293 7.02035 2.727007 28.353917 2.185178
2003-02-11 10:16:54 51°22.69 3°9.276 7.036705 2.729321 28.347741 2.117759
2003-02-11 10:17:54 51°22.696 3°9.259 6.571938 2.728375 28.345262 2.218888
2003-02-11 10:18:54 51°22.703 3°9.24 6.884981 2.727743 28.347911 2.117759
2003-02-11 10:19:54 51°22.705 3°9.218 7.028602 2.727743 28.350189 2.016631
2003-02-11 10:20:53 51°22.702 3°9.197 6.634038 2.727743 28.351708 2.151469
2003-02-11 10:21:54 51°22.696 3°9.179 7.735052 2.727007 28.354677 2.286306
2003-02-11 10:22:54 51°22.687 3°9.165 6.315383 2.727112 28.358922 2.286306
2003-02-11 10:23:54 51°22.679 3°9.153 7.721741 2.725219 28.332689 2.185178
2003-02-11 10:24:53 51°22.67 3°9.148 7.196935 2.724588 28.326224 2.218888
2003-02-11 10:25:54 51°22.662 3°9.148 7.118513 2.724798 28.327114 2.151469
2003-02-11 10:26:52 51°22.651 3°9.178 7.454559 2.726166 28.342006 2.050341
2003-02-11 10:27:54 51°22.649 3°9.208 7.648533 2.726376 28.335301 1.746956
2003-02-11 10:28:54 51°22.652 3°9.229 7.044856 2.724482 28.31819 2.016631
2003-02-11 10:29:52 51°22.659 3°9.246 7.361259 2.724377 28.313951 1.982922
2003-02-11 10:30:54 51°22.671 3°9.262 6.885129 2.724693 28.320597 1.915503
2003-02-11 10:31:53 51°22.683 3°9.276 7.018582 2.724482 28.311362 1.915503
2003-02-11 10:32:54 51°22.695 3°9.289 7.469339 2.724272 28.303648 1.982922
2003-02-11 10:33:53 51°22.71 3°9.298 7.648241 2.727112 28.355121 2.185178
2003-02-11 10:34:54 51°22.725 3°9.305 7.41415 2.72301 28.295274 2.050341
2003-02-11 10:35:54 51°22.74 3°9.31 7.332427 2.72322 28.293891 1.982922
2003-02-11 10:36:52 51°22.755 3°9.312 7.57524 2.723115 28.297235 2.050341
2003-02-11 10:37:54 51°22.769 3°9.312 7.298055 2.723536 28.300532 2.016631
2003-02-11 10:38:54 51°22.782 3°9.315 7.054626 2.724588 28.314841 2.016631
2003-02-11 10:39:54 51°22.797 3°9.323 7.691904 2.725324 28.324025 2.08405
2003-02-11 10:40:52 51°22.807 3°9.342 7.457681 2.725219 28.319028 1.982922
2003-02-11 10:41:54 51°22.815 3°9.368 7.822279 2.725324 28.31568 1.881794
2003-02-11 10:42:53 51°22.814 3°9.392 7.81476 2.72585 28.325489 1.814375
2003-02-11 10:43:52 51°22.804 3°9.409 7.534957 2.725114 28.318583 1.848084
2003-02-11 10:44:54 51°22.785 3°9.411 7.521459 2.724588 28.318635 2.185178
2003-02-11 10:45:54 51°22.763 3°9.389 7.046035 2.723536 28.313426 2.117759
2003-02-11 10:46:54 51°22.746 3°9.342 7.541583 2.722168 28.286405 2.016631
2003-02-11 10:47:53 51°22.735 3°9.282 7.026244 2.721221 28.269517 1.814375
2003-02-11 10:48:54 51°22.733 3°9.209 6.980797 2.720906 28.262881 1.949212
2003-02-11 10:49:53 51°22.745 3°9.135 7.385781 2.720695 28.258205 2.08405
2003-02-11 10:50:54 51°22.777 3°9.032 8.007649 2.722168 28.275044 2.08405
2003-02-11 10:51:54 51°22.837 3°8.852 7.786713 2.729321 28.368245 2.252597
2003-02-11 10:52:54 51°22.947 3°8.539 7.773171 2.73132 28.381993 2.218888
2003-02-11 10:53:54 51°23.063 3°8.207 8.521626 2.737737 28.445515 2.117759
2003-02-11 10:54:54 51°23.153 3°7.859 7.903526 2.752255 28.594815 1.949212
2003-02-11 10:55:54 51°23.211 3°7.491 7.67873 2.756147 28.62557 2.050341
2003-02-11 10:56:53 51°23.273 3°7.134 7.494259 2.753728 28.628518 2.218888
2003-02-11 10:57:53 51°23.336 3°6.77 7.573974 2.748573 28.584812 1.881794
2003-02-11 10:58:54 51°23.4 3°6.397 7.527502 2.750993 28.617123 1.915503
2003-02-11 10:59:53 51°23.463 3°6.039 7.575484 2.756463 28.679031 1.713247
2003-02-11 11:00:54 51°23.56 3°5.688 7.176016 2.757515 28.685706 1.679537
2003-02-11 11:01:54 51°23.683 3°5.367 7.366487 2.756464 28.68441 1.5447
2003-02-11 11:02:54 51°23.886 3°5.191 7.315903 2.744997 28.579835 1.342443
2003-02-11 11:03:54 51°24.122 3°5.136 7.245215 2.74405 28.586616 1.241315
2003-02-11 11:04:54 51°24.36 3°5.108 7.576555 2.748153 28.623698 1.173896
2003-02-11 11:05:54 51°24.576 3°5.087 7.01647 2.752992 28.666135 1.173896
2003-02-11 11:06:52 51°24.76 3°5.07 7.140089 2.753097 28.666572 1.173896
2003-02-11 11:07:52 51°24.94 3°5.056 7.290621 2.752151 28.668785 1.039059
2003-02-11 11:08:53 51°25.121 3°5.074 7.976057 2.751835 28.659014 1.005349
2003-02-11 11:09:54 51°25.297 3°5.12 7.781131 2.754675 28.685437 1.072768
2003-02-11 11:10:54 51°25.46 3°5.225 8.044157 2.767089 28.774606 1.005349
2003-02-11 11:11:54 51°25.621 3°5.336 8.260742 2.763091 28.720364 1.039059
2003-02-11 11:12:54 51°25.768 3°5.485 7.541973 2.766458 28.74199 1.005349
2003-02-11 11:13:53 51°25.911 3°5.636 8.120006 2.769193 28.774064 1.005349
2003-02-11 11:14:54 51°26.06 3°5.79 7.961587 2.768351 28.779823 0.93793
2003-02-11 11:15:54 51°26.207 3°5.942 8.279674 2.769509 28.794616 0.97164
2003-02-11 11:16:54 51°26.353 3°6.094 7.347871 2.774664 28.849801 1.039059
2003-02-11 11:17:52 51°26.489 3°6.255 7.50279 2.773612 28.866327 1.106477
2003-02-11 11:18:54 51°26.62 3°6.451 8.007843 2.774769 28.872636 1.072768
2003-02-11 11:19:53 51°26.746 3°6.634 7.39423 2.787289 28.982818 1.072768
2003-02-11 11:20:54 51°26.876 3°6.824 7.566085 2.792339 29.025157 1.072768
2003-02-11 11:21:55 51°27.006 3°7.011 7.52872 2.797389 29.076009 0.93793
2003-02-11 11:22:54 51°27.132 3°7.193 7.638026 2.796968 29.075074 0.93793
2003-02-11 11:23:55 51°27.263 3°7.381 7.493576 2.799388 29.101238 0.904221
2003-02-11 11:24:55 51°27.392 3°7.566 7.223577 2.80528 29.158611 0.904221
2003-02-11 11:25:53 51°27.515 3°7.745 7.98559 2.810857 29.211569 0.904221
2003-02-11 11:26:55 51°27.64 3°7.945 7.350998 2.814855 29.257367 1.039059
2003-02-11 11:27:55 51°27.762 3°8.135 7.868005 2.81959 29.307699 1.039059
2003-02-11 11:28:55 51°27.855 3°8.281 7.827372 2.820011 29.311738 0.97164
2003-02-11 11:29:55 51°27.932 3°8.398 7.865291 2.821063 29.328492 0.97164
2003-02-11 11:30:55 51°28.005 3°8.505 7.618953 2.820011 29.321916 0.93793
2003-02-11 11:31:55 51°28.092 3°8.636 7.639534 2.817801 29.298942 0.93793
2003-02-11 11:32:55 51°28.182 3°8.809 7.263371 2.818853 29.307086 0.97164
2003-02-11 11:33:55 51°28.171 3°8.99 7.699875 2.819695 29.316732 0.701965
2003-02-11 11:34:55 51°28.18 3°9.107 7.206388 2.816223 29.285549 0.634546
2003-02-11 11:35:55 51°28.205 3°9.136 6.791831 2.816854 29.282615 0.634546
2003-02-11 11:36:55 51°28.235 3°9.141 7.678682 2.836635 29.501492 0.904221
2003-02-11 11:37:55 51°28.272 3°9.156 6.593552 2.84579 29.605687 0.836802
2003-02-11 11:38:55 51°28.299 3°9.23 7.559754 2.847158 29.616634 0.735674
2003-02-11 11:39:55 51°28.274 3°9.303 7.481434 2.848315 29.629119 0.600836
2003-02-11 11:40:54 51°28.257 3°9.308 7.278979 2.85042 29.65405 0.668255
2003-02-11 11:41:54 51°28.247 3°9.296 6.835837 2.851472 29.668497 0.701965
2003-02-11 11:42:54 51°28.24 3°9.278 6.766341 2.852735 29.675062 0.668255
2003-02-11 11:43:55 51°28.236 3°9.259 7.321477 2.852419 29.673025 0.904221
2003-02-11 11:44:55 51°28.231 3°9.242 7.159207 2.851682 29.668536 0.870512
2003-02-11 11:45:54 51°28.228 3°9.225 6.554227 2.851682 29.666952 0.803093
2003-02-11 11:46:53 51°28.224 3°9.21 7.199482 2.850946 29.661669 0.904221
2003-02-11 11:47:53 51°28.222 3°9.197 7.199825 2.85063 29.660423 0.93793
2003-02-11 11:48:55 51°28.219 3°9.184 7.068665 2.850525 29.656841 0.97164
2003-02-11 11:49:55 51°28.215 3°9.175 6.917067 2.850315 29.653635 0.904221
2003-02-11 11:50:54 51°28.21 3°9.17 6.91997 2.850315 29.652052 0.870512
2003-02-11 11:51:55 51°28.203 3°9.169 7.693314 2.85042 29.650884 0.836802
2003-02-11 11:52:55 51°28.193 3°9.171 6.478675 2.851893 29.660657 0.701965
2003-02-11 11:53:55 51°28.181 3°9.167 7.244725 2.851893 29.66699 0.701965
2003-02-11 11:54:56 51°28.167 3°9.152 6.844605 2.851788 29.664991 0.634546
2003-02-11 11:55:56 51°28.152 3°9.132 6.690646 2.852314 29.668651 0.567127
2003-02-11 11:56:55 51°28.137 3°9.114 6.780739 2.852629 29.666729 0.735674
2003-02-11 11:57:56 51°28.121 3°9.1 7.571734 2.851577 29.660202 0.870512
2003-02-11 11:58:56 51°28.105 3°9.091 7.366096 2.851577 29.657037 0.836802
2003-02-11 11:59:56 51°28.095 3°9.084 7.647608 2.851051 29.65496 0.870512
2003-02-11 12:00:56 51°28.089 3°9.078 7.212118 2.850946 29.656919 0.93793
2003-02-11 12:01:56 51°28.085 3°9.069 7.28842 2.851577 29.655454 0.836802
2003-02-11 12:02:56 51°28.081 3°9.057 6.720855 2.851156 29.656167 0.735674
2003-02-11 12:03:55 51°28.076 3°9.039 6.757364 2.850314 29.649677 0.735674
2003-02-11 12:04:56 51°28.068 3°9.011 7.002124 2.85063 29.65409 0.735674
2003-02-11 12:05:56 51°28.061 3°8.966 6.7548 2.849894 29.648806 0.769383
2003-02-11 12:06:56 51°28.062 3°8.903 7.241886 2.848736 29.638694 0.836802
2003-02-11 12:07:55 51°28.084 3°8.841 6.720954 2.82685 29.38383 0.803093
2003-02-11 12:08:55 51°28.124 3°8.798 6.566151 2.818537 29.28548 0.668255
2003-02-11 12:09:56 51°28.176 3°8.774 7.167979 2.81759 29.269168 0.668255
2003-02-11 12:10:56 51°28.233 3°8.769 7.00124 2.815065 29.24572 0.803093
2003-02-11 12:11:56 51°28.29 3°8.786 6.592909 2.814644 29.244023 0.668255
2003-02-11 12:12:56 51°28.337 3°8.82 7.243893 2.814539 29.24438 0.668255
2003-02-11 12:13:55 51°28.373 3°8.859 7.052073 2.815486 29.248197 0.634546
2003-02-11 12:14:56 51°28.402 3°8.9 7.452022 2.818748 29.280076 0.634546
2003-02-11 12:15:56 51°28.461 3°8.926 7.651451 2.822115 29.327236 0.904221
2003-02-11 12:16:53 51°28.556 3°8.755 7.533447 2.820536 29.298992 0.533418
2003-02-11 12:17:57 51°28.558 3°8.424 7.649797 2.821589 29.30713 0.533418
2003-02-11 12:18:56 51°28.555 3°8.06 7.609366 2.823167 29.328329 0.904221
2003-02-11 12:19:58 51°28.554 3°7.671 7.663852 2.826324 29.363693 0.836802
2003-02-11 12:20:56 51°28.553 3°7.309 7.48948 2.833478 29.433084 1.005349
2003-02-11 12:21:57 51°28.552 3°6.928 7.851619 2.829691 29.42031 0.769383
2003-02-11 12:22:56 51°28.55 3°6.558 7.882061 2.820642 29.328368 0.668255
2003-02-11 12:23:57 51°28.548 3°6.175 7.671681 2.830006 29.407441 0.668255
2003-02-11 12:24:58 51°28.548 3°5.793 8.082044 2.833373 29.419326 0.735674
2003-02-11 12:25:56 51°28.545 3°5.431 7.134254 2.836319 29.446773 0.769383
2003-02-11 12:26:58 51°28.542 3°5.046 7.182532 2.822746 29.29225 0.904221
2003-02-11 12:27:57 51°28.54 3°4.678 7.825965 2.815486 29.231815 0.904221
2003-02-11 12:28:56 51°28.528 3°4.368 6.766982 2.817695 29.244621 0.904221
2003-02-11 12:29:57 51°28.486 3°4.149 7.042106 2.820431 29.272015 0.735674
2003-02-11 12:30:58 51°28.449 3°3.949 6.472929 2.82001 29.268761 0.600836
2003-02-11 12:31:57 51°28.517 3°3.795 6.598249 2.819168 29.257572 0.668255
2003-02-11 12:32:57 51°28.616 3°3.663 6.716759 2.818011 29.243554 0.803093
2003-02-11 12:33:56 51°28.697 3°3.674 6.999963 2.814433 29.202641 0.701965
2003-02-11 12:34:56 51°28.726 3°3.758 7.089718 2.816538 29.222812 0.701965
2003-02-11 12:35:57 51°28.737 3°3.794 7.530669 2.82001 29.256283 0.803093
2003-02-11 12:36:57 51°28.748 3°3.818 6.966837 2.820115 29.261385 0.701965
2003-02-11 12:37:58 51°28.758 3°3.84 6.730379 2.819694 29.257351 0.769383
2003-02-11 12:38:58 51°28.765 3°3.863 6.735067 2.821062 29.267535 0.93793
2003-02-11 12:39:58 51°28.769 3°3.886 6.692621 2.821273 29.266822 0.870512
2003-02-11 12:40:58 51°28.769 3°3.907 6.649603 2.82022 29.253233 0.701965
2003-02-11 12:41:58 51°28.766 3°3.926 6.808097 2.820115 29.256707 0.836802
2003-02-11 12:42:58 51°28.761 3°3.941 7.086332 2.820431 29.264995 0.735674
2003-02-11 12:43:58 51°28.754 3°3.951 7.61068 2.820536 29.263858 0.769383
2003-02-11 12:44:58 51°28.744 3°3.955 6.885228 2.820747 29.265485 0.836802
2003-02-11 12:45:58 51°28.735 3°3.951 6.565062 2.820536 29.265418 0.769383
2003-02-11 12:46:57 51°28.727 3°3.937 6.572037 2.820115 29.259825 0.803093
2003-02-11 12:47:58 51°28.721 3°3.915 6.684671 2.820115 29.263724 0.735674
2003-02-11 12:48:55 51°28.718 3°3.891 6.93694 2.820326 29.263011 0.600836
2003-02-11 12:49:58 51°28.715 3°3.866 6.97485 2.821062 29.259739 0.735674
2003-02-11 12:50:58 51°28.713 3°3.844 7.29561 2.820115 29.255927 0.803093
2003-02-11 12:51:56 51°28.711 3°3.825 7.176408 2.819484 29.247929 0.870512
2003-02-11 12:52:56 51°28.71 3°3.806 7.781423 2.819589 29.248353 0.93793
2003-02-11 12:53:56 51°28.71 3°3.786 7.319081 2.82022 29.250896 0.97164
2003-02-11 12:54:55 51°28.71 3°3.771 7.141413 2.820852 29.260451 1.005349
2003-02-11 12:55:56 51°28.709 3°3.756 7.057179 2.821167 29.261721 0.97164
2003-02-11 12:56:58 51°28.709 3°3.743 7.211041 2.820115 29.254368 1.039059
2003-02-11 12:57:58 51°28.708 3°3.73 7.25515 2.819905 29.255859 1.005349
2003-02-11 12:58:58 51°28.707 3°3.717 6.975931 2.82001 29.252386 1.005349
2003-02-11 12:59:58 51°28.706 3°3.703 7.132489 2.819694 29.250336 1.005349
2003-02-11 13:00:57 51°28.706 3°3.69 7.06037 2.819379 29.244389 1.039059
2003-02-11 13:01:58 51°28.706 3°3.676 7.063315 2.819379 29.241273 1.039059
2003-02-11 13:02:58 51°28.706 3°3.663 7.502985 2.818852 29.233702 1.005349
2003-02-11 13:03:58 51°28.705 3°3.651 7.221128 2.819063 29.233771 0.93793
2003-02-11 13:04:56 51°28.704 3°3.639 7.823686 2.819379 29.240494 0.97164
2003-02-11 13:05:57 51°28.704 3°3.626 7.977896 2.821693 29.268516 0.97164
2003-02-11 13:06:58 51°28.704 3°3.611 7.385537 2.818747 29.231721 0.904221
2003-02-11 13:07:58 51°28.705 3°3.595 7.189832 2.817695 29.215026 0.769383
2003-02-11 13:08:57 51°28.706 3°3.579 7.307591 2.818747 29.223159 0.97164
2003-02-11 13:09:58 51°28.709 3°3.56 6.818741 2.82464 29.302982 1.072768
2003-02-11 13:10:56 51°28.716 3°3.529 6.863763 2.819905 29.246508 0.97164
2003-02-11 13:11:58 51°28.734 3°3.482 7.219855 2.816432 29.20682 0.701965
2003-02-11 13:12:58 51°28.764 3°3.432 7.262539 2.815906 29.201585 0.735674
2003-02-11 13:13:58 51°28.801 3°3.38 7.035772 2.816958 29.208942 0.803093
2003-02-11 13:14:56 51°28.842 3°3.34 7.075242 2.8178 29.206117 0.769383
2003-02-11 13:15:57 51°28.89 3°3.317 6.908752 2.818537 29.221532 0.701965
2003-02-11 13:17:02 51°28.946 3°3.318 6.79193 2.818221 29.221816 0.735674
2003-02-11 13:18:02 51°28.995 3°3.344 7.121897 2.818747 29.222381 0.735674
2003-02-11 13:19:02 51°29.037 3°3.388 6.722089 2.819694 29.228532 0.769383
2003-02-11 13:20:02 51°29.065 3°3.437 7.043727 2.821167 29.239135 0.701965
2003-02-11 13:21:06 51°29.084 3°3.49 6.678844 2.822114 29.252289 0.735674
2003-02-11 13:22:06 51°29.095 3°3.537 7.170331 2.822535 29.257098 0.735674
2003-02-11 13:23:07 51°29.101 3°3.578 6.332516 2.824534 29.269033 0.668255
2003-02-11 13:24:06 51°29.104 3°3.61 6.577874 2.828111 29.308339 0.668255
2003-02-11 13:25:07 51°29.105 3°3.639 6.710145 2.829269 29.312982 0.668255
2003-02-11 13:26:05 51°29.103 3°3.66 7.311894 2.829164 29.305545 0.600836
2003-02-11 13:27:07 51°29.097 3°3.688 7.068862 2.828111 29.295089 0.668255
2003-02-11 13:28:05 51°29.054 3°3.748 7.017157 2.827164 29.291287 0.600836
2003-02-11 13:29:07 51°28.983 3°3.746 7.445728 2.825481 29.279849 0.634546
2003-02-11 13:30:05 51°28.932 3°3.704 7.443873 2.824113 29.274351 0.701965
2003-02-11 13:31:07 51°28.881 3°3.628 7.318348 2.823166 29.268985 0.836802
2003-02-11 13:32:06 51°28.836 3°3.548 7.001093 2.823061 29.268562 0.701965
2003-02-11 13:33:07 51°28.79 3°3.466 6.529581 2.823692 29.272659 0.600836
2003-02-11 13:34:06 51°28.745 3°3.389 7.171018 2.822114 29.244505 0.533418
2003-02-11 13:35:06 51°28.698 3°3.314 7.92295 2.818957 29.217784 0.499708
2003-02-11 13:36:07 51°28.649 3°3.24 7.837024 2.816117 29.186109 0.634546
2003-02-11 13:37:06 51°28.601 3°3.17 7.249864 2.815591 29.181654 0.567127
2003-02-11 13:38:07 51°28.55 3°3.099 7.965943 2.814328 29.159469 0.499708
2003-02-11 13:39:06 51°28.501 3°3.031 7.333991 2.813065 29.145828 0.567127
2003-02-11 13:40:07 51°28.449 3°2.963 7.20536 2.812118 29.129588 0.567127
2003-02-11 13:41:12 51°28.392 3°2.896 7.485774 2.811066 29.125327 0.533418
2003-02-11 13:42:12 51°28.337 3°2.839 7.487042 2.811908 29.13649 0.567127
2003-02-11 13:43:11 51°28.282 3°2.785 6.727715 2.814223 29.157492 0.567127
2003-02-11 13:44:16 51°28.22 3°2.729 6.517354 2.814749 29.163499 0.634546
2003-02-11 13:45:17 51°28.161 3°2.676 6.352821 2.815275 29.175718 0.567127
2003-02-11 13:46:17 51°28.103 3°2.621 7.281963 2.815906 29.182929 0.600836
2003-02-11 13:47:22 51°28.041 3°2.561 7.245215 2.814959 29.172889 0.600836
2003-02-11 13:48:22 51°27.983 3°2.507 7.442507 2.812539 29.14525 0.600836
2003-02-11 13:49:22 51°27.925 3°2.452 6.919478 2.811487 29.133234 0.533418
2003-02-11 13:50:22 51°27.867 3°2.398 7.437725 2.81075 29.123273 0.567127
2003-02-11 13:51:22 51°27.811 3°2.335 7.269341 2.811592 29.136763 0.735674
2003-02-11 13:52:22 51°27.763 3°2.253 6.942154 2.827165 29.324048 1.072768
2003-02-11 13:53:22 51°27.729 3°2.153 6.779211 2.838739 29.460342 1.173896
2003-02-11 13:54:22 51°27.698 3°2.049 6.743503 2.828954 29.349972 1.005349
2003-02-11 13:55:26 51°27.663 3°1.941 7.708768 2.819168 29.23186 0.668255
2003-02-11 13:56:26 51°27.634 3°1.842 7.395744 2.816117 29.193103 0.735674
2003-02-11 13:57:30 51°27.624 3°1.745 7.597198 2.824113 29.285264 0.93793
2003-02-11 13:58:30 51°27.627 3°1.668 8.34495 2.818852 29.226696 1.039059
2003-02-11 13:59:31 51°27.633 3°1.607 7.509956 2.820115 29.238789 0.904221
2003-02-11 14:00:31 51°27.64 3°1.555 7.592233 2.825692 29.307987 1.072768
2003-02-11 14:01:31 51°27.647 3°1.508 7.360917 2.824324 29.283771 1.106477
2003-02-11 14:02:30 51°27.657 3°1.461 7.844976 2.824639 29.279583 1.005349
2003-02-11 14:03:30 51°27.693 3°1.431 7.867278 2.82506 29.273484 0.836802
2003-02-11 14:04:30 51°27.72 3°1.494 6.59192 2.82748 29.286323 0.870512
2003-02-11 14:05:34 51°27.611 3°1.538 7.492064 2.82969 29.317009 1.005349
2003-02-11 14:06:36 51°27.381 3°1.483 7.162294 2.8299 29.336578 1.072768
2003-02-11 14:07:36 51°27.147 3°1.425 6.759683 2.825586 29.289624 1.005349
2003-02-11 14:08:39 51°26.899 3°1.367 7.050061 2.828743 29.317891 1.005349
2003-02-11 14:09:39 51°26.664 3°1.311 7.103406 2.822219 29.249598 1.039059
2003-02-11 14:10:38 51°26.434 3°1.258 7.4669 2.815906 29.207809 1.173896
2003-02-11 14:11:38 51°26.2 3°1.204 7.081965 2.828217 29.33686 1.140187
2003-02-11 14:12:39 51°25.959 3°1.151 7.638318 2.83453 29.403577 1.072768
2003-02-11 14:13:39 51°25.722 3°1.117 7.257254 2.818326 29.193476 1.140187
2003-02-11 14:14:39 51°25.487 3°1.086 7.488261 2.808751 29.084964 1.173896
2003-02-11 14:15:39 51°25.252 3°1.056 7.497086 2.799387 28.994327 1.342443
2003-02-11 14:16:37 51°25.024 3°1.026 7.336093 2.80044 29.043444 1.308734
2003-02-11 14:17:39 51°24.782 3°0.992 7.209718 2.796968 28.989089 1.140187
2003-02-11 14:18:38 51°24.551 3°0.957 6.790205 2.796547 29.012881 1.342443
2003-02-11 14:19:38 51°24.315 3°0.921 7.136853 2.799809 29.044746 1.443571
2003-02-11 14:20:37 51°24.083 3°0.885 7.287148 2.781712 28.841055 1.308734
2003-02-11 14:21:36 51°23.85 3°0.85 7.205409 2.77782 28.841204 1.376153
2003-02-11 14:22:39 51°23.602 3°0.808 7.253975 2.779923 28.825239 1.275024
2003-02-11 14:23:39 51°23.367 3°0.769 7.346454 2.777609 28.808021 1.308734
2003-02-11 14:24:38 51°23.134 3°0.73 6.898959 2.774874 28.809822 1.477281
2003-02-11 14:25:38 51°22.899 3°0.691 7.087755 2.770455 28.756987 1.409862
2003-02-11 14:26:38 51°22.664 3°0.647 6.995245 2.769929 28.724889 1.308734
2003-02-11 14:27:39 51°22.428 3°0.58 6.754997 2.771086 28.71742 1.308734
2003-02-11 14:28:37 51°22.201 3°0.511 6.748486 2.767194 28.711266 1.578409
2003-02-11 14:29:35 51°21.976 3°0.415 7.427867 2.765826 28.733999 1.645828
2003-02-11 14:30:38 51°21.732 3°0.307 6.853126 2.763511 28.653889 1.713247
2003-02-11 14:31:38 51°21.502 3°0.204 7.000257 2.761091 28.57365 1.915503
2003-02-11 14:32:39 51°21.279 3°0.102 7.126899 2.752043 28.491801 2.286306
2003-02-11 14:33:39 51°21.135 3°0.007 7.076273 2.742891 28.417018 2.555982
2003-02-11 14:34:39 51°21.067 2°59.827 6.695336 2.744994 28.373647 1.780665
2003-02-11 14:35:39 51°21.069 2°59.636 7.265084 2.7451 28.399031 2.218888
2003-02-11 14:36:38 51°21.098 2°59.513 6.914902 2.744154 28.448119 2.6234
2003-02-11 14:37:38 51°21.109 2°59.465 7.044218 2.744048 28.418845 2.488563
2003-02-11 14:38:38 51°21.112 2°59.434 7.186452 2.750465 28.46319 2.320016
2003-02-11 14:39:38 51°21.129 2°59.4 7.150188 2.751833 28.458305 2.252597
2003-02-11 14:40:38 51°21.177 2°59.193 6.82426 2.755725 28.47232 1.949212
2003-02-11 14:41:39 51°21.052 2°58.879 7.301429 2.775082 28.609768 1.5447
2003-02-11 14:42:38 51°20.914 2°58.564 7.083192 2.779712 28.716397 2.421144
2003-02-11 14:43:38 51°20.774 2°58.24 7.549232 2.773505 28.719009 2.522272
2003-02-11 14:44:38 51°20.633 2°57.916 7.260827 2.777503 28.724066 2.488563
2003-02-11 14:45:38 51°20.489 2°57.598 7.415273 2.773085 28.754039 2.859366
2003-02-11 14:46:35 51°20.361 2°57.284 7.568861 2.774558 28.741728 2.522272
2003-02-11 14:47:38 51°20.221 2°56.936 6.974702 2.781396 28.807493 2.555982
2003-02-11 14:48:39 51°20.087 2°56.597 7.694772 2.796336 28.957195 2.454853
2003-02-11 14:49:38 51°19.957 2°56.27 7.328663 2.801176 29.003933 2.387435
2003-02-11 14:50:35 51°19.828 2°55.959 7.217015 2.807488 29.041972 2.286306
2003-02-11 14:51:39 51°19.68 2°55.614 7.368783 2.821692 29.163653 2.185178
2003-02-11 14:52:38 51°19.543 2°55.297 7.432552 2.836107 29.289068 2.117759
2003-02-11 14:53:35 51°19.409 2°54.992 7.455046 2.847366 29.377582 2.016631
2003-02-11 14:54:39 51°19.258 2°54.65 7.531887 2.857257 29.482327 2.050341
2003-02-11 14:55:39 51°19.116 2°54.328 7.724851 2.857047 29.518978 2.286306
2003-02-11 14:56:39 51°18.97 2°54.012 7.013375 2.857363 29.537442 2.117759
2003-02-11 14:57:39 51°18.821 2°53.699 7.452168 2.862414 29.591888 1.949212
2003-02-11 14:58:35 51°18.68 2°53.407 7.840224 2.863782 29.609054 1.814375
2003-02-11 14:59:39 51°18.506 2°53.09 6.886261 2.863992 29.624802 1.814375
2003-02-11 15:00:39 51°18.329 2°52.818 7.718923 2.865571 29.64438 1.915503
2003-02-11 15:01:39 51°18.123 2°52.606 7.663658 2.869359 29.686817 1.881794
2003-02-11 15:02:42 51°17.881 2°52.47 7.340052 2.870516 29.704751 1.814375
2003-02-11 15:03:44 51°17.631 2°52.411 7.323041 2.871358 29.732498 1.982922
2003-02-11 15:04:44 51°17.388 2°52.404 7.773413 2.870622 29.723297 2.016631
2003-02-11 15:05:43 51°17.156 2°52.465 7.768559 2.879672 29.825876 2.218888
2003-02-11 15:06:49 51°16.903 2°52.583 7.461583 2.894825 29.973611 2.690819
2003-02-11 15:07:54 51°16.662 2°52.73 7.737189 2.888827 29.898757 2.589691
2003-02-11 15:09:03 51°16.409 2°52.893 7.337217 2.876409 29.756233 1.848084
2003-02-11 15:10:01 51°16.2 2°53.027 7.818835 2.839159 29.36973 2.185178
2003-02-11 15:11:03 51°15.978 2°53.169 7.161951 2.829058 29.281764 2.151469
2003-02-11 15:12:03 51°15.761 2°53.307 7.274576 2.82506 29.248583 2.353725
2003-02-11 15:13:04 51°15.544 2°53.452 7.339416 2.804437 28.975623 2.320016
2003-02-11 15:14:03 51°15.34 2°53.606 7.236012 2.794547 28.906784 2.589691
2003-02-11 15:15:03 51°15.17 2°53.835 7.328223 2.79844 28.995097 2.690819
2003-02-11 15:16:03 51°15.02 2°54.1 7.387588 2.804964 29.088175 3.162751
2003-02-11 15:17:02 51°14.884 2°54.332 7.747145 2.805806 29.113311 3.398717
2003-02-11 15:18:02 51°14.772 2°54.498 7.445386 2.797809 29.004883 3.263879
2003-02-11 15:19:04 51°14.683 2°54.637 7.460803 2.785605 28.869357 3.567264
2003-02-11 15:20:09 51°14.579 2°54.798 7.244089 2.778556 28.814996 3.836939
2003-02-11 15:21:09 51°14.443 2°54.993 7.271983 2.76835 28.686962 3.870648
2003-02-11 15:22:09 51°14.306 2°55.199 7.183806 2.69976 27.857909 4.544836